PIA324 OPIS-OPKC
Flight info
| Callsign | PIA324 |
|---|---|
| Flight time | N/A |
| Altitude | 40000 |
| Route | BELKO Z301 NH |
| Aircraft | B77L/H-SDE1E2E3FGHIJ2J3J4J5M1RWXY/LB1D1 |
Departure
| Time | N/A |
|---|---|
| Airport | Islamabad International Airport (OPIS) |
Arrival
| Time | 2026-05-03 20:52 |
|---|---|
| Airport | Jinnah International Airport (OPKC) |
| Time | Latitude | Longitude | Altitude | Speed | Heading |
|---|---|---|---|---|---|
| 2026-05-03 20:15 | 28.38838 | 69.69709 | 39647 ft | 478 kts | 216° |
| 2026-05-03 20:15 | 28.32989 | 69.66097 | 39642 ft | 478 kts | 216° |
| 2026-05-03 20:16 | 28.27132 | 69.62491 | 39639 ft | 478 kts | 216° |
| 2026-05-03 20:16 | 28.21306 | 69.58910 | 39639 ft | 478 kts | 217° |
| 2026-05-03 20:17 | 28.15448 | 69.55314 | 39639 ft | 478 kts | 217° |
| 2026-05-03 20:17 | 28.09594 | 69.51724 | 39636 ft | 478 kts | 217° |
| 2026-05-03 20:18 | 28.03776 | 69.48161 | 39634 ft | 478 kts | 217° |
| 2026-05-03 20:18 | 27.97917 | 69.44576 | 39634 ft | 478 kts | 217° |
| 2026-05-03 20:19 | 27.92059 | 69.40998 | 39633 ft | 478 kts | 217° |
| 2026-05-03 20:19 | 27.86201 | 69.37423 | 39633 ft | 479 kts | 217° |
| 2026-05-03 20:20 | 27.81321 | 69.34448 | 39634 ft | 479 kts | 217° |
| 2026-05-03 20:20 | 27.74487 | 69.30288 | 39634 ft | 479 kts | 217° |
| 2026-05-03 20:21 | 27.68598 | 69.26707 | 39630 ft | 480 kts | 217° |
| 2026-05-03 20:21 | 27.62742 | 69.23151 | 39629 ft | 481 kts | 217° |
| 2026-05-03 20:22 | 27.57833 | 69.20173 | 39622 ft | 481 kts | 217° |
| 2026-05-03 20:22 | 27.51930 | 69.16597 | 39622 ft | 481 kts | 217° |
| 2026-05-03 20:23 | 27.45056 | 69.12436 | 39626 ft | 482 kts | 217° |
| 2026-05-03 20:23 | 27.40099 | 69.09440 | 39624 ft | 482 kts | 217° |
| 2026-05-03 20:24 | 27.34217 | 69.05888 | 39626 ft | 483 kts | 217° |
| 2026-05-03 20:24 | 27.28295 | 69.02313 | 39621 ft | 483 kts | 217° |
| 2026-05-03 20:25 | 27.22364 | 68.98736 | 39621 ft | 483 kts | 217° |
| 2026-05-03 20:25 | 27.16432 | 68.95162 | 39622 ft | 483 kts | 217° |
| 2026-05-03 20:26 | 27.10494 | 68.91590 | 39619 ft | 483 kts | 217° |
| 2026-05-03 20:26 | 27.04610 | 68.88053 | 39620 ft | 483 kts | 216° |
| 2026-05-03 20:27 | 26.98688 | 68.84499 | 39619 ft | 482 kts | 216° |
| 2026-05-03 20:27 | 26.92762 | 68.80946 | 39618 ft | 482 kts | 216° |
| 2026-05-03 20:28 | 26.86849 | 68.77405 | 39616 ft | 482 kts | 216° |
| 2026-05-03 20:28 | 26.80924 | 68.73862 | 39614 ft | 481 kts | 216° |
| 2026-05-03 20:29 | 26.75050 | 68.70351 | 39622 ft | 481 kts | 216° |
| 2026-05-03 20:29 | 26.69132 | 68.66819 | 39621 ft | 481 kts | 216° |
| 2026-05-03 20:30 | 26.63210 | 68.63289 | 39614 ft | 481 kts | 216° |
| 2026-05-03 20:30 | 26.57343 | 68.59781 | 39615 ft | 481 kts | 216° |
| 2026-05-03 20:31 | 26.51439 | 68.56245 | 39614 ft | 481 kts | 216° |
| 2026-05-03 20:31 | 26.45538 | 68.52714 | 39614 ft | 481 kts | 216° |
| 2026-05-03 20:32 | 26.39640 | 68.49192 | 39615 ft | 481 kts | 216° |
| 2026-05-03 20:32 | 26.33739 | 68.45672 | 39615 ft | 481 kts | 216° |
| 2026-05-03 20:33 | 26.27913 | 68.42207 | 39601 ft | 465 kts | 216° |
| 2026-05-03 20:33 | 26.22226 | 68.38818 | 39610 ft | 462 kts | 216° |
| 2026-05-03 20:34 | 26.16834 | 68.35081 | 39119 ft | 460 kts | 223° |
| 2026-05-03 20:34 | 26.14228 | 68.33034 | 38651 ft | 457 kts | 224° |
| 2026-05-03 20:34 | 26.11650 | 68.30979 | 38195 ft | 454 kts | 224° |
| 2026-05-03 20:34 | 26.09082 | 68.28942 | 37475 ft | 454 kts | 224° |
| 2026-05-03 20:35 | 26.06486 | 68.26902 | 36645 ft | 458 kts | 223° |
| 2026-05-03 20:35 | 26.03865 | 68.24867 | 35856 ft | 461 kts | 223° |
| 2026-05-03 20:35 | 26.01216 | 68.22829 | 35090 ft | 464 kts | 223° |
| 2026-05-03 20:35 | 25.98540 | 68.20783 | 34349 ft | 467 kts | 222° |
| 2026-05-03 20:36 | 25.95853 | 68.18736 | 33604 ft | 469 kts | 222° |
| 2026-05-03 20:36 | 25.93156 | 68.16684 | 32777 ft | 471 kts | 222° |
| 2026-05-03 20:36 | 25.90479 | 68.14648 | 31985 ft | 472 kts | 221° |
| 2026-05-03 20:36 | 25.87765 | 68.12585 | 31201 ft | 473 kts | 221° |
| 2026-05-03 20:37 | 25.85045 | 68.10518 | 30442 ft | 473 kts | 220° |
| 2026-05-03 20:37 | 25.82329 | 68.08455 | 29690 ft | 473 kts | 220° |
| 2026-05-03 20:37 | 25.79610 | 68.06391 | 28810 ft | 473 kts | 220° |
| 2026-05-03 20:37 | 25.76893 | 68.04330 | 27945 ft | 471 kts | 220° |
| 2026-05-03 20:38 | 25.74190 | 68.02279 | 27109 ft | 470 kts | 220° |
| 2026-05-03 20:38 | 25.71493 | 68.00234 | 26298 ft | 468 kts | 219° |
| 2026-05-03 20:38 | 25.68807 | 67.98198 | 25504 ft | 466 kts | 219° |
| 2026-05-03 20:38 | 25.66131 | 67.96171 | 24745 ft | 465 kts | 219° |
| 2026-05-03 20:39 | 25.63500 | 67.94178 | 24006 ft | 463 kts | 219° |
| 2026-05-03 20:39 | 25.60846 | 67.92170 | 23267 ft | 461 kts | 219° |
| 2026-05-03 20:39 | 25.58204 | 67.90172 | 22346 ft | 458 kts | 219° |
| 2026-05-03 20:39 | 25.55584 | 67.88197 | 21611 ft | 453 kts | 218° |
| 2026-05-03 20:40 | 25.52983 | 67.86229 | 20789 ft | 452 kts | 218° |
| 2026-05-03 20:40 | 25.50393 | 67.84269 | 19995 ft | 451 kts | 218° |
| 2026-05-03 20:40 | 25.47806 | 67.82313 | 19225 ft | 449 kts | 218° |
| 2026-05-03 20:40 | 25.45230 | 67.80369 | 18472 ft | 447 kts | 218° |
| 2026-05-03 20:41 | 25.42666 | 67.78435 | 17706 ft | 445 kts | 217° |
| 2026-05-03 20:41 | 25.40112 | 67.76510 | 16870 ft | 442 kts | 217° |
| 2026-05-03 20:41 | 25.37579 | 67.74602 | 16054 ft | 439 kts | 217° |
| 2026-05-03 20:41 | 25.35068 | 67.72711 | 15272 ft | 435 kts | 216° |
| 2026-05-03 20:42 | 25.32575 | 67.70835 | 14505 ft | 431 kts | 216° |
| 2026-05-03 20:42 | 25.30119 | 67.68988 | 14021 ft | 421 kts | 216° |
| 2026-05-03 20:42 | 25.27745 | 67.67206 | 13677 ft | 406 kts | 215° |
| 2026-05-03 20:42 | 25.25414 | 67.65454 | 12896 ft | 404 kts | 215° |
| 2026-05-03 20:43 | 25.23093 | 67.63711 | 12070 ft | 403 kts | 215° |
| 2026-05-03 20:43 | 25.20799 | 67.61988 | 11289 ft | 401 kts | 215° |
| 2026-05-03 20:43 | 25.18494 | 67.60258 | 10509 ft | 399 kts | 215° |
| 2026-05-03 20:43 | 25.16205 | 67.58541 | 9749 ft | 397 kts | 216° |
| 2026-05-03 20:44 | 25.13924 | 67.56831 | 8951 ft | 386 kts | 216° |
| 2026-05-03 20:44 | 25.11804 | 67.55246 | 8166 ft | 353 kts | 216° |
| 2026-05-03 20:44 | 25.09836 | 67.53774 | 7353 ft | 330 kts | 216° |
| 2026-05-03 20:44 | 25.07986 | 67.52389 | 6593 ft | 313 kts | 217° |
| 2026-05-03 20:45 | 25.06223 | 67.51069 | 5829 ft | 300 kts | 217° |
| 2026-05-03 20:45 | 25.04562 | 67.49824 | 5226 ft | 284 kts | 218° |
| 2026-05-03 20:45 | 25.02983 | 67.48644 | 4773 ft | 264 kts | 218° |
| 2026-05-03 20:45 | 25.01507 | 67.47542 | 4416 ft | 250 kts | 218° |
| 2026-05-03 20:46 | 25.00080 | 67.46473 | 4133 ft | 245 kts | 219° |
| 2026-05-03 20:46 | 24.98682 | 67.45428 | 3907 ft | 236 kts | 220° |
| 2026-05-03 20:46 | 24.97625 | 67.44191 | 3734 ft | 213 kts | 248° |
| 2026-05-03 20:46 | 24.97136 | 67.42696 | 3625 ft | 200 kts | 259° |
| 2026-05-03 20:47 | 24.96789 | 67.41269 | 3472 ft | 187 kts | 260° |
| 2026-05-03 20:47 | 24.96463 | 67.39897 | 3345 ft | 184 kts | 260° |
| 2026-05-03 20:47 | 24.96139 | 67.38534 | 3242 ft | 180 kts | 260° |
| 2026-05-03 20:47 | 24.95833 | 67.37235 | 3136 ft | 170 kts | 261° |
| 2026-05-03 20:48 | 24.95550 | 67.35997 | 3064 ft | 169 kts | 261° |
| 2026-05-03 20:48 | 24.95260 | 67.34731 | 3024 ft | 171 kts | 262° |
| 2026-05-03 20:48 | 24.94966 | 67.33455 | 3007 ft | 174 kts | 262° |
| 2026-05-03 20:48 | 24.94665 | 67.32149 | 2883 ft | 177 kts | 261° |
| 2026-05-03 20:49 | 24.94374 | 67.30842 | 2517 ft | 172 kts | 264° |
| 2026-05-03 20:49 | 24.94158 | 67.29569 | 2170 ft | 165 kts | 263° |
| 2026-05-03 20:49 | 24.93891 | 67.28350 | 1968 ft | 164 kts | 261° |
| 2026-05-03 20:49 | 24.93590 | 67.27124 | 1747 ft | 164 kts | 259° |
| 2026-05-03 20:50 | 24.93294 | 67.25951 | 1547 ft | 155 kts | 261° |
| 2026-05-03 20:50 | 24.93010 | 67.24820 | 1359 ft | 152 kts | 261° |
| 2026-05-03 20:50 | 24.92722 | 67.23670 | 1166 ft | 156 kts | 259° |
| 2026-05-03 20:50 | 24.92433 | 67.22521 | 969 ft | 158 kts | 258° |
| 2026-05-03 20:51 | 24.92145 | 67.21384 | 771 ft | 149 kts | 257° |
| 2026-05-03 20:51 | 24.91877 | 67.20324 | 580 ft | 136 kts | 256° |
| 2026-05-03 20:51 | 24.91623 | 67.19315 | 436 ft | 139 kts | 258° |
| 2026-05-03 20:51 | 24.91370 | 67.18290 | 235 ft | 137 kts | 258° |
| 2026-05-03 20:52 | 24.91117 | 67.17295 | 118 ft | 132 kts | 258° |
| 2026-05-03 20:52 | 24.90899 | 67.16390 | 108 ft | 115 kts | 253° |
| 2026-05-03 20:52 | 24.90698 | 67.15655 | 109 ft | 60 kts | 254° |
| 2026-05-03 20:52 | 24.90607 | 67.15281 | 110 ft | 48 kts | 255° |
| 2026-05-03 20:53 | 24.90542 | 67.15025 | 110 ft | 33 kts | 252° |
| 2026-05-03 20:53 | 24.90459 | 67.14797 | 109 ft | 32 kts | 226° |
| 2026-05-03 20:53 | 24.90306 | 67.14786 | 108 ft | 11 kts | 160° |
| 2026-05-03 20:53 | 24.90293 | 67.14792 | 108 ft | 0 kts | 154° |
| 2026-05-03 20:54 | 24.90292 | 67.14793 | 109 ft | 0 kts | 153° |
| 2026-05-03 20:54 | 24.90246 | 67.14871 | 109 ft | 12 kts | 108° |
| 2026-05-03 20:54 | 24.90221 | 67.14975 | 108 ft | 19 kts | 105° |
| 2026-05-03 20:55 | 24.90175 | 67.15165 | 107 ft | 27 kts | 104° |
| 2026-05-03 20:55 | 24.90142 | 67.15372 | 108 ft | 28 kts | 83° |
| 2026-05-03 20:55 | 24.90193 | 67.15577 | 107 ft | 28 kts | 74° |
| 2026-05-03 20:55 | 24.90246 | 67.15787 | 106 ft | 32 kts | 74° |
| 2026-05-03 20:56 | 24.90311 | 67.16041 | 106 ft | 35 kts | 75° |
| 2026-05-03 20:56 | 24.90370 | 67.16281 | 108 ft | 22 kts | 77° |
| 2026-05-03 20:56 | 24.90298 | 67.16388 | 109 ft | 17 kts | 136° |
| 2026-05-03 20:56 | 24.90257 | 67.16449 | 107 ft | 8 kts | 124° |
| 2026-05-03 20:57 | 24.90223 | 67.16502 | 106 ft | 9 kts | 124° |
| 2026-05-03 20:57 | 24.90216 | 67.16515 | 106 ft | 0 kts | 124° |